Time;durP1;ratioP1;P1;durP2;ratioP2;P2;SDS_P1;SDS_P2;PMS_P1;PMS_P2;Temp;Humidity;BMP_temperature;BMP_pressure;BME280_temperature;BME280_humidity;BME280_pressure;Samples;Min_cycle;Max_cycle;Signal;HPM_P1;HPM_P2
2023/07/23 00:01:40;;;;;;;7.18;3.10;;;15.30;99.90;;;;;;5126812;27;20073;-64
2023/07/23 00:04:07;;;;;;;6.30;3.30;;;15.30;99.90;;;;;;5134189;27;20040;-64
2023/07/23 00:06:34;;;;;;;9.07;3.30;;;15.30;99.90;;;;;;5129311;27;20411;-64
2023/07/23 00:09:00;;;;;;;5.75;3.08;;;15.20;99.90;;;;;;5133765;27;20502;-64
2023/07/23 00:11:27;;;;;;;7.75;3.45;;;15.20;99.90;;;;;;5130365;27;20033;-64
2023/07/23 00:13:55;;;;;;;4.55;3.00;;;15.30;99.90;;;;;;5127172;27;20050;-64
2023/07/23 00:16:23;;;;;;;6.45;3.60;;;15.30;99.90;;;;;;5131711;27;20039;-62
2023/07/23 00:18:50;;;;;;;5.82;2.88;;;15.30;99.90;;;;;;5133380;27;20511;-63
2023/07/23 00:21:17;;;;;;;10.85;3.50;;;15.30;99.90;;;;;;5133490;27;20043;-63
2023/07/23 00:23:43;;;;;;;7.05;3.17;;;15.20;99.90;;;;;;5130409;27;20053;-63
2023/07/23 00:26:10;;;;;;;6.90;3.67;;;15.30;99.90;;;;;;5115557;27;20487;-63
2023/07/23 00:28:37;;;;;;;6.07;3.40;;;15.30;99.90;;;;;;5132214;27;20122;-62
2023/07/23 00:31:04;;;;;;;5.60;3.22;;;15.30;99.90;;;;;;5111494;28;20100;-62
2023/07/23 00:33:31;;;;;;;7.57;3.38;;;15.30;99.90;;;;;;5133084;27;20043;-63
2023/07/23 00:35:57;;;;;;;5.82;3.83;;;15.30;99.90;;;;;;5132609;27;20046;-62
2023/07/23 00:38:24;;;;;;;7.78;3.50;;;15.30;99.90;;;;;;5113203;27;20043;-62
2023/07/23 00:40:52;;;;;;;7.03;3.97;;;15.40;99.90;;;;;;5133806;27;20039;-63
2023/07/23 00:43:19;;;;;;;5.90;3.60;;;15.40;99.90;;;;;;5114207;27;20043;-63
2023/07/23 00:45:46;;;;;;;5.97;3.65;;;15.40;99.90;;;;;;5131125;27;20037;-63
2023/07/23 00:48:13;;;;;;;5.82;3.38;;;15.30;99.90;;;;;;5113007;27;20130;-62
2023/07/23 00:50:40;;;;;;;7.55;3.05;;;15.40;99.90;;;;;;5133269;27;20050;-63
2023/07/23 00:53:07;;;;;;;7.00;3.85;;;15.40;99.90;;;;;;5114379;27;20045;-62
2023/07/23 00:55:34;;;;;;;7.65;3.58;;;15.40;99.90;;;;;;5127047;27;20031;-63
2023/07/23 00:58:01;;;;;;;9.52;3.63;;;15.30;99.90;;;;;;5114620;27;20483;-62
2023/07/23 01:00:28;;;;;;;6.25;3.38;;;15.40;99.90;;;;;;5112974;27;20042;-63
2023/07/23 01:02:55;;;;;;;6.53;3.28;;;15.30;99.90;;;;;;5112563;27;20043;-62
2023/07/23 01:05:23;;;;;;;4.25;3.28;;;15.40;99.90;;;;;;5097288;27;20096;-63
2023/07/23 01:07:50;;;;;;;5.30;3.70;;;15.40;99.90;;;;;;5106381;27;20040;-62
2023/07/23 01:10:19;;;;;;;8.38;3.40;;;15.40;99.90;;;;;;5132079;27;20035;-62
2023/07/23 01:12:46;;;;;;;5.32;3.22;;;15.40;99.90;;;;;;5113078;27;20120;-63
2023/07/23 01:15:13;;;;;;;5.40;2.97;;;15.50;99.90;;;;;;5132191;27;20058;-62
2023/07/23 01:17:41;;;;;;;7.85;3.50;;;15.40;99.90;;;;;;5113725;27;20082;-62
2023/07/23 01:20:08;;;;;;;5.38;2.90;;;15.40;99.90;;;;;;5132110;27;20515;-63
2023/07/23 01:22:37;;;;;;;4.03;3.10;;;15.30;99.90;;;;;;5128147;27;20106;-63
2023/07/23 01:25:04;;;;;;;7.75;3.42;;;15.20;99.90;;;;;;5132306;27;20114;-63
2023/07/23 01:27:32;;;;;;;5.95;3.55;;;15.20;99.90;;;;;;5113724;27;20050;-63
2023/07/23 01:29:59;;;;;;;9.52;3.47;;;15.20;99.90;;;;;;5108734;28;20484;-63
2023/07/23 01:32:26;;;;;;;6.43;3.33;;;15.10;99.90;;;;;;5131130;27;20480;-63
2023/07/23 01:34:56;;;;;;;6.93;3.55;;;15.10;99.90;;;;;;5132080;27;20066;-63
2023/07/23 01:37:23;;;;;;;8.30;3.33;;;15.10;99.90;;;;;;5108845;27;20060;-61
2023/07/23 01:39:50;;;;;;;6.75;3.67;;;15.10;99.90;;;;;;5129613;27;20039;-62
2023/07/23 01:42:17;;;;;;;5.90;4.13;;;15.10;99.90;;;;;;5113559;27;20043;-62
2023/07/23 01:44:44;;;;;;;6.45;3.75;;;15.20;99.90;;;;;;5113199;27;20122;-62
2023/07/23 01:47:11;;;;;;;6.53;3.80;;;15.30;99.90;;;;;;5113048;27;20062;-63
2023/07/23 01:49:38;;;;;;;13.02;4.32;;;15.30;99.90;;;;;;5112863;27;20472;-62
2023/07/23 01:52:05;;;;;;;12.98;4.30;;;15.40;99.90;;;;;;5122960;27;20060;-62
2023/07/23 01:54:32;;;;;;;8.38;4.07;;;15.40;99.90;;;;;;5113622;27;20162;-62
2023/07/23 01:56:59;;;;;;;5.70;3.78;;;15.40;99.90;;;;;;5113282;27;20574;-62
2023/07/23 01:59:26;;;;;;;8.70;3.83;;;15.40;99.90;;;;;;5110706;27;20063;-63
2023/07/23 02:01:53;;;;;;;5.55;3.75;;;15.30;99.90;;;;;;5111639;28;20042;-63
2023/07/23 02:04:19;;;;;;;9.05;3.83;;;15.30;99.90;;;;;;5131986;27;20046;-63
2023/07/23 02:06:46;;;;;;;6.85;3.58;;;15.30;99.90;;;;;;5129169;27;20471;-62
2023/07/23 02:09:13;;;;;;;5.32;4.00;;;15.10;99.90;;;;;;5132112;27;20049;-63
2023/07/23 02:11:40;;;;;;;6.03;3.60;;;15.20;99.90;;;;;;5130400;27;20038;-62
2023/07/23 02:14:08;;;;;;;7.65;4.22;;;15.20;99.90;;;;;;5132393;27;20473;-63
2023/07/23 02:16:35;;;;;;;5.75;3.53;;;15.20;99.90;;;;;;5111259;27;20088;-62
2023/07/23 02:19:02;;;;;;;9.75;4.13;;;15.20;99.90;;;;;;5113232;27;20058;-62
2023/07/23 02:21:29;;;;;;;6.53;4.15;;;15.20;99.90;;;;;;5110795;27;20046;-63
2023/07/23 02:23:56;;;;;;;9.55;4.30;;;15.10;99.90;;;;;;5131530;27;20043;-62
2023/07/23 02:26:23;;;;;;;8.70;4.45;;;15.10;99.90;;;;;;5112076;28;20061;-63
2023/07/23 02:28:50;;;;;;;8.13;4.50;;;15.00;99.90;;;;;;5131173;28;20438;-63
2023/07/23 02:31:16;;;;;;;6.75;3.92;;;15.00;99.90;;;;;;5111689;28;20039;-63
2023/07/23 02:33:43;;;;;;;6.68;3.88;;;15.00;99.90;;;;;;5131690;28;20395;-63
2023/07/23 02:36:10;;;;;;;6.68;4.10;;;15.00;99.90;;;;;;5131934;27;20049;-63
2023/07/23 02:38:37;;;;;;;6.78;4.18;;;15.00;99.90;;;;;;5117892;28;20051;-62
2023/07/23 02:41:04;;;;;;;7.40;4.50;;;14.90;99.90;;;;;;5113656;28;20050;-62
2023/07/23 02:43:31;;;;;;;7.85;4.25;;;15.00;99.90;;;;;;5128808;28;20131;-62
2023/07/23 02:45:57;;;;;;;10.10;4.13;;;15.00;99.90;;;;;;5124185;28;20059;-63
2023/07/23 02:48:24;;;;;;;7.18;3.95;;;15.10;99.90;;;;;;5130040;28;20059;-62
2023/07/23 02:50:52;;;;;;;7.43;4.05;;;15.00;99.90;;;;;;5126801;28;20089;-62
2023/07/23 02:53:19;;;;;;;7.25;3.88;;;14.80;99.90;;;;;;5108704;28;20055;-63
2023/07/23 02:55:46;;;;;;;8.18;4.38;;;14.80;99.90;;;;;;5117761;28;20408;-63
2023/07/23 02:58:13;;;;;;;5.97;4.18;;;14.80;99.90;;;;;;5108224;28;20509;-62
2023/07/23 03:00:40;;;;;;;8.18;4.53;;;14.80;99.90;;;;;;5122636;28;20055;-62
2023/07/23 03:03:07;;;;;;;7.20;4.57;;;14.80;99.90;;;;;;5108330;28;20339;-62
2023/07/23 03:05:35;;;;;;;;;;;14.90;99.90;;;;;;5114747;28;20040;-63
2023/07/23 03:08:05;;;;;;;8.13;3.97;;;14.90;99.90;;;;;;5112708;28;19926;-63
2023/07/23 03:10:32;;;;;;;6.07;4.35;;;14.90;99.90;;;;;;5123930;27;20058;-63
2023/07/23 03:12:58;;;;;;;7.75;4.72;;;14.90;99.90;;;;;;5131350;28;20046;-63
2023/07/23 03:15:26;;;;;;;6.57;3.95;;;14.80;99.90;;;;;;5130922;27;20066;-62
2023/07/23 03:17:53;;;;;;;7.47;4.60;;;14.80;99.90;;;;;;5127663;28;20052;-62
2023/07/23 03:20:20;;;;;;;8.07;3.97;;;14.70;99.90;;;;;;5128684;28;20445;-62
2023/07/23 03:22:47;;;;;;;6.75;3.95;;;14.70;99.90;;;;;;5130613;28;20599;-62
2023/07/23 03:25:14;;;;;;;7.50;4.00;;;14.60;99.90;;;;;;5110769;28;20134;-62
2023/07/23 03:27:41;;;;;;;7.70;4.30;;;14.60;99.90;;;;;;5112828;28;20042;-63
2023/07/23 03:30:08;;;;;;;7.50;4.65;;;14.60;99.90;;;;;;5128618;27;20043;-65
2023/07/23 03:32:34;;;;;;;10.63;4.68;;;14.60;99.90;;;;;;5115708;27;20141;-62
2023/07/23 03:35:02;;;;;;;8.10;4.78;;;14.70;99.90;;;;;;5133827;27;20122;-63
2023/07/23 03:37:29;;;;;;;11.43;5.00;;;14.60;99.90;;;;;;5116559;27;20154;-62
2023/07/23 03:39:56;;;;;;;10.35;4.20;;;14.50;99.90;;;;;;5125188;27;20100;-62
2023/07/23 03:42:24;;;;;;;9.45;4.15;;;14.50;99.90;;;;;;5116302;27;20062;-63
2023/07/23 03:44:51;;;;;;;7.30;4.28;;;14.50;99.90;;;;;;5129456;27;20110;-62
2023/07/23 03:47:19;;;;;;;7.85;4.43;;;14.50;99.90;;;;;;5116416;27;20085;-62
2023/07/23 03:49:47;;;;;;;10.88;4.63;;;14.40;99.90;;;;;;5114655;27;20077;-63
2023/07/23 03:52:14;;;;;;;7.28;5.28;;;14.40;99.90;;;;;;5112430;28;20039;-63
2023/07/23 03:54:41;;;;;;;9.73;4.88;;;14.50;99.90;;;;;;5126298;27;20062;-63
2023/07/23 03:57:09;;;;;;;;;;;14.50;99.90;;;;;;5116497;27;20070;-63
2023/07/23 03:59:41;;;;;;;10.25;4.95;;;14.50;99.90;;;;;;5128354;27;19927;-62
2023/07/23 04:02:08;;;;;;;5.50;3.47;;;14.50;99.90;;;;;;5133876;27;20027;-63
2023/07/23 04:04:35;;;;;;;;;;;14.50;99.90;;;;;;5115713;27;20050;-62
2023/07/23 04:07:03;;;;;;;10.02;4.55;;;14.50;99.90;;;;;;5114024;27;19947;-63
2023/07/23 04:09:30;;;;;;;8.75;4.53;;;14.50;99.90;;;;;;5130669;27;20039;-63
2023/07/23 04:11:57;;;;;;;8.25;4.53;;;14.60;99.90;;;;;;5127105;27;20042;-63
2023/07/23 04:14:25;;;;;;;8.48;4.82;;;14.60;99.90;;;;;;5134528;27;20051;-62
2023/07/23 04:16:53;;;;;;;6.47;4.45;;;14.70;99.90;;;;;;5127630;27;20059;-63
2023/07/23 04:19:19;;;;;;;6.90;4.43;;;14.60;99.90;;;;;;5115541;27;20088;-63
2023/07/23 04:21:47;;;;;;;10.93;4.45;;;14.70;99.90;;;;;;5114450;27;20130;-63
2023/07/23 04:24:13;;;;;;;6.03;3.72;;;14.70;99.90;;;;;;5115369;27;20134;-63
2023/07/23 04:26:40;;;;;;;6.25;3.88;;;14.80;99.90;;;;;;5112372;27;20088;-61
2023/07/23 04:29:08;;;;;;;5.80;3.83;;;14.70;99.90;;;;;;5133659;27;20046;-62
2023/07/23 04:31:36;;;;;;;9.18;4.60;;;14.60;99.90;;;;;;5128623;27;20042;-63
2023/07/23 04:34:04;;;;;;;6.03;3.92;;;14.60;99.90;;;;;;5133570;27;20043;-63
2023/07/23 04:36:31;;;;;;;11.00;4.30;;;14.60;99.90;;;;;;5114002;27;20046;-62
2023/07/23 04:39:00;;;;;;;7.65;4.47;;;14.80;99.90;;;;;;5114081;27;20442;-62
2023/07/23 04:41:28;;;;;;;6.18;4.25;;;14.90;99.90;;;;;;5115402;27;20067;-63
2023/07/23 04:43:55;;;;;;;5.38;3.42;;;15.10;99.90;;;;;;5131458;27;20067;-62
2023/07/23 04:46:22;;;;;;;7.13;3.90;;;15.10;99.90;;;;;;5133845;27;20038;-63
2023/07/23 04:48:49;;;;;;;9.18;4.22;;;15.10;99.90;;;;;;5110499;27;20043;-62
2023/07/23 04:51:16;;;;;;;8.25;4.53;;;15.30;99.90;;;;;;5115295;27;20043;-62
2023/07/23 04:53:43;;;;;;;6.32;3.85;;;15.20;99.90;;;;;;5132234;27;20163;-63
2023/07/23 04:56:09;;;;;;;5.25;4.00;;;15.30;99.90;;;;;;5133931;27;20043;-62
2023/07/23 04:58:36;;;;;;;5.57;4.07;;;15.20;99.90;;;;;;5129333;27;20058;-63
2023/07/23 05:01:09;;;;;;;9.50;4.50;;;15.20;99.90;;;;;;5132412;27;20050;-62
2023/07/23 05:03:37;;;;;;;9.75;4.43;;;15.10;99.90;;;;;;5144292;27;20117;-62
2023/07/23 05:06:05;;;;;;;11.77;4.63;;;15.10;99.90;;;;;;5145095;27;20084;-62
2023/07/23 05:08:33;;;;;;;8.13;4.53;;;15.00;99.90;;;;;;5141782;27;20052;-62
2023/07/23 05:11:01;;;;;;;7.22;4.45;;;15.10;99.90;;;;;;5139375;27;20034;-62
2023/07/23 05:13:29;;;;;;;9.75;4.20;;;15.20;99.90;;;;;;5142637;27;20039;-63
2023/07/23 05:15:58;;;;;;;8.15;4.63;;;15.20;99.90;;;;;;5127939;27;20057;-62
2023/07/23 05:18:26;;;;;;;8.07;4.82;;;15.20;99.90;;;;;;5140225;27;20057;-63
2023/07/23 05:20:52;;;;;;;7.35;4.63;;;15.30;99.90;;;;;;5123038;27;20051;-63
2023/07/23 05:23:19;;;;;;;7.55;4.30;;;15.40;99.90;;;;;;5140206;27;20023;-62
2023/07/23 05:25:46;;;;;;;6.90;4.78;;;15.50;99.90;;;;;;5135805;27;20495;-63
2023/07/23 05:28:13;;;;;;;6.50;3.75;;;15.50;99.90;;;;;;5142383;27;20053;-62
2023/07/23 05:30:40;;;;;;;;;;;15.50;99.90;;;;;;5135597;27;20047;-62
2023/07/23 05:33:07;;;;;;;9.38;4.47;;;15.60;99.90;;;;;;5142154;27;19920;-63
2023/07/23 05:35:35;;;;;;;5.57;3.75;;;15.60;99.90;;;;;;5138992;27;20039;-62
2023/07/23 05:38:03;;;;;;;6.40;4.07;;;15.70;99.90;;;;;;5137752;27;20500;-63
2023/07/23 05:40:31;;;;;;;6.35;3.35;;;15.80;99.90;;;;;;5129890;27;20058;-63
2023/07/23 05:42:59;;;;;;;7.40;3.85;;;16.00;99.90;;;;;;5140011;27;20039;-63
2023/07/23 05:45:26;;;;;;;6.63;3.75;;;16.10;99.90;;;;;;5138527;27;20037;-63
2023/07/23 05:47:53;;;;;;;8.88;4.45;;;16.40;99.90;;;;;;5140051;27;20099;-63
2023/07/23 05:50:20;;;;;;;8.70;4.30;;;16.30;99.90;;;;;;5136084;27;20356;-63
2023/07/23 05:52:46;;;;;;;8.55;4.03;;;16.50;99.90;;;;;;5140826;27;20491;-63
2023/07/23 05:55:13;;;;;;;5.80;4.20;;;16.40;99.90;;;;;;5140534;27;20047;-63
2023/07/23 05:57:40;;;;;;;8.65;4.50;;;16.50;99.90;;;;;;5140900;27;20047;-63
2023/07/23 06:00:07;;;;;;;7.50;4.30;;;16.40;99.90;;;;;;5136960;27;20054;-62
2023/07/23 06:02:37;;;;;;;7.72;4.40;;;16.40;99.90;;;;;;5138587;27;20107;-62
2023/07/23 06:05:04;;;;;;;5.90;4.00;;;16.40;99.90;;;;;;5135412;27;20122;-62
2023/07/23 06:07:32;;;;;;;6.55;4.15;;;16.40;99.90;;;;;;5132842;27;20033;-62
2023/07/23 06:09:59;;;;;;;6.97;4.05;;;16.40;99.90;;;;;;5130274;27;20039;-62
2023/07/23 06:12:27;;;;;;;6.28;4.22;;;16.50;99.90;;;;;;5131586;27;20136;-62
2023/07/23 06:14:54;;;;;;;6.18;3.92;;;16.60;99.90;;;;;;5121606;27;20051;-62
2023/07/23 06:17:21;;;;;;;7.80;4.32;;;16.70;99.90;;;;;;5131065;27;20039;-62
2023/07/23 06:19:48;;;;;;;6.22;4.03;;;16.80;99.90;;;;;;5113123;28;20158;-63
2023/07/23 06:22:14;;;;;;;4.13;3.13;;;16.80;99.90;;;;;;5127167;27;20067;-63
2023/07/23 06:24:41;;;;;;;7.00;3.72;;;17.00;99.90;;;;;;5136971;27;20039;-62
2023/07/23 06:27:08;;;;;;;5.70;3.75;;;17.10;99.90;;;;;;5130542;28;20039;-63
2023/07/23 06:29:35;;;;;;;10.55;4.82;;;17.20;99.90;;;;;;5131613;28;20039;-62
2023/07/23 06:32:02;;;;;;;9.60;4.32;;;17.30;99.90;;;;;;5122215;28;20050;-63
2023/07/23 06:34:28;;;;;;;5.82;4.10;;;17.40;99.90;;;;;;5131987;27;20484;-63
2023/07/23 06:36:55;;;;;;;6.07;4.10;;;17.50;99.90;;;;;;5129582;28;20441;-63
2023/07/23 06:39:22;;;;;;;7.70;4.38;;;17.60;99.90;;;;;;5131517;28;20036;-63
2023/07/23 06:41:49;;;;;;;6.00;3.55;;;17.60;99.90;;;;;;5130249;28;20047;-63
2023/07/23 06:44:16;;;;;;;11.57;4.00;;;17.80;99.90;;;;;;5113217;28;20064;-64
2023/07/23 06:46:43;;;;;;;6.38;3.70;;;17.90;99.90;;;;;;5129119;28;20228;-63
2023/07/23 06:49:12;;;;;;;5.88;3.80;;;18.00;99.90;;;;;;5131483;28;20046;-63
2023/07/23 06:51:39;;;;;;;5.05;3.75;;;18.20;99.90;;;;;;5131579;28;20039;-63
2023/07/23 06:54:05;;;;;;;6.88;3.83;;;18.30;99.90;;;;;;5128387;27;20477;-63
2023/07/23 06:56:33;;;;;;;9.35;4.30;;;18.40;99.90;;;;;;5131572;28;20494;-62
2023/07/23 06:59:00;;;;;;;8.27;4.30;;;18.50;99.90;;;;;;5130149;28;20039;-61
2023/07/23 07:01:27;;;;;;;7.78;4.05;;;18.70;99.90;;;;;;5132000;28;20038;-63
2023/07/23 07:03:56;;;;;;;5.68;3.88;;;18.80;99.90;;;;;;5128804;27;20118;-63
2023/07/23 07:06:22;;;;;;;7.20;4.13;;;19.00;99.90;;;;;;5133197;27;20031;-63
2023/07/23 07:08:49;;;;;;;6.20;3.97;;;19.10;99.90;;;;;;5132007;27;20038;-63
2023/07/23 07:11:16;;;;;;;5.57;4.18;;;19.30;99.90;;;;;;5135293;27;20035;-62
2023/07/23 07:13:43;;;;;;;9.15;3.67;;;19.40;99.90;;;;;;5135012;27;20076;-64
2023/07/23 07:16:10;;;;;;;6.85;3.78;;;19.30;99.90;;;;;;5128912;27;20043;-63
2023/07/23 07:18:37;;;;;;;;;;;19.50;99.90;;;;;;5135152;27;20058;-63
2023/07/23 07:21:04;;;;;;;9.52;3.55;;;19.60;99.90;;;;;;5134996;27;19919;-64
2023/07/23 07:23:31;;;;;;;9.02;3.70;;;19.60;99.90;;;;;;5132024;27;20053;-64
2023/07/23 07:26:00;;;;;;;7.78;3.33;;;19.70;99.90;;;;;;5132780;27;20042;-64
2023/07/23 07:28:29;;;;;;;8.85;3.85;;;19.70;99.90;;;;;;5133853;27;20066;-63
2023/07/23 07:30:58;;;;;;;6.10;3.78;;;19.80;99.90;;;;;;5134757;27;20047;-63
2023/07/23 07:33:26;;;;;;;6.50;3.67;;;20.00;99.90;;;;;;5129789;27;20075;-64
2023/07/23 07:35:57;;;;;;;7.55;3.80;;;20.10;99.90;;;;;;5133904;27;20088;-64
2023/07/23 07:38:25;;;;;;;6.50;3.60;;;20.20;99.90;;;;;;5134500;27;20070;-63
2023/07/23 07:40:53;;;;;;;5.90;3.90;;;20.30;99.90;;;;;;5132006;27;20043;-64
2023/07/23 07:43:20;;;;;;;5.50;3.65;;;20.40;99.90;;;;;;5134696;27;20042;-64
2023/07/23 07:46:10;;;;;;;6.30;4.10;;;20.50;99.90;;;;;;5134060;27;20402;-64
2023/07/23 07:48:37;;;;;;;6.78;3.70;;;20.60;99.90;;;;;;5132089;27;20036;-64
2023/07/23 07:51:06;;;;;;;5.60;3.78;;;20.70;99.90;;;;;;5131549;27;20043;-64
2023/07/23 07:53:34;;;;;;;6.03;3.95;;;21.00;99.90;;;;;;5129219;27;20667;-64
2023/07/23 07:56:02;;;;;;;4.38;3.38;;;21.10;99.90;;;;;;5131244;27;20047;-64
2023/07/23 07:58:30;;;;;;;5.97;3.40;;;21.00;99.90;;;;;;5134850;27;20387;-64
2023/07/23 08:00:58;;;;;;;5.30;3.72;;;21.10;99.90;;;;;;5126774;27;20043;-64
2023/07/23 08:03:27;;;;;;;6.88;4.00;;;21.20;99.90;;;;;;5133155;27;20114;-64
2023/07/23 08:05:55;;;;;;;8.52;4.20;;;21.30;99.90;;;;;;5131501;27;20460;-63
2023/07/23 08:08:31;;;;;;;6.28;4.07;;;21.40;99.90;;;;;;5126992;27;20091;-64
2023/07/23 08:11:00;;;;;;;5.07;3.45;;;21.70;99.90;;;;;;5133025;27;20070;-64
2023/07/23 08:13:28;;;;;;;6.10;3.53;;;21.80;99.90;;;;;;5134485;27;20046;-63
2023/07/23 08:15:56;;;;;;;5.93;4.10;;;21.60;99.90;;;;;;5123859;27;20045;-63
2023/07/23 08:18:24;;;;;;;12.18;4.10;;;21.80;99.90;;;;;;5133709;27;20035;-63
2023/07/23 08:20:51;;;;;;;7.13;4.20;;;21.90;99.90;;;;;;5125150;27;20058;-63
2023/07/23 08:23:19;;;;;;;14.18;4.43;;;21.90;99.90;;;;;;5125427;27;20042;-63
2023/07/23 08:25:49;;;;;;;7.13;4.22;;;21.90;99.90;;;;;;5132871;27;20035;-64
2023/07/23 08:28:22;;;;;;;8.38;4.22;;;21.90;99.90;;;;;;5124383;27;20042;-63
2023/07/23 08:30:49;;;;;;;8.55;3.40;;;22.10;99.90;;;;;;5128799;27;20472;-64
2023/07/23 08:33:18;;;;;;;6.93;3.85;;;22.20;99.90;;;;;;5132385;27;20050;-64
2023/07/23 08:35:45;;;;;;;6.85;4.30;;;22.40;99.90;;;;;;5133143;27;20104;-64
2023/07/23 08:38:12;;;;;;;6.65;3.80;;;22.60;99.90;;;;;;5131907;27;20491;-63
2023/07/23 08:40:43;;;;;;;4.57;3.70;;;22.70;99.90;;;;;;5127990;27;20054;-63
2023/07/23 08:43:26;;;;;;;5.97;3.70;;;22.90;99.90;;;;;;5132712;27;20050;-63
2023/07/23 08:46:15;;;;;;;5.07;3.60;;;23.00;99.90;;;;;;5134051;27;20050;-64
2023/07/23 08:49:05;;;;;;;6.25;4.25;;;22.80;99.90;;;;;;5109008;27;20632;-64
2023/07/23 08:51:44;;;;;;;11.50;4.55;;;22.90;99.90;;;;;;5133352;27;20112;-63
2023/07/23 08:54:12;;;;;;;4.25;3.40;;;22.90;99.90;;;;;;5131549;27;20039;-64
2023/07/23 08:56:41;;;;;;;6.82;3.50;;;23.00;99.90;;;;;;5131472;27;20386;-64
2023/07/23 08:59:11;;;;;;;6.30;3.67;;;23.10;99.90;;;;;;5128068;27;20071;-64
2023/07/23 09:01:40;;;;;;;5.00;3.55;;;23.20;99.90;;;;;;5114724;27;20046;-64
2023/07/23 09:04:12;;;;;;;7.05;3.70;;;23.30;99.90;;;;;;5132433;27;20039;-64
2023/07/23 09:06:42;;;;;;;5.35;4.10;;;23.30;99.90;;;;;;5127946;27;20043;-63
2023/07/23 09:09:12;;;;;;;7.38;3.60;;;23.50;99.90;;;;;;5132260;27;20081;-64
2023/07/23 09:11:38;;;;;;;6.50;4.00;;;23.70;99.90;;;;;;5133299;27;20038;-64
2023/07/23 09:14:10;;;;;;;6.28;4.40;;;23.80;99.90;;;;;;5131045;27;20054;-64
2023/07/23 09:16:39;;;;;;;4.78;3.78;;;23.90;99.90;;;;;;5128634;27;20043;-64
2023/07/23 09:19:08;;;;;;;6.28;3.70;;;24.00;99.90;;;;;;5131870;27;20099;-64
2023/07/23 09:21:36;;;;;;;6.50;3.45;;;24.10;99.90;;;;;;5133081;27;20506;-64
2023/07/23 09:24:06;;;;;;;4.57;3.30;;;24.30;99.90;;;;;;5123756;27;20050;-64
2023/07/23 09:26:35;;;;;;;8.10;3.47;;;24.20;99.90;;;;;;5132618;27;20039;-63
2023/07/23 09:29:07;;;;;;;4.25;3.38;;;24.30;99.90;;;;;;5125142;27;20039;-62
2023/07/23 09:31:36;;;;;;;6.10;4.00;;;24.30;99.90;;;;;;5133032;27;20047;-61
2023/07/23 09:34:03;;;;;;;7.10;4.05;;;24.10;99.90;;;;;;5131427;27;20661;-62
2023/07/23 09:36:30;;;;;;;;;;;24.10;99.90;;;;;;5131847;27;20031;-63
2023/07/23 09:39:06;;;;;;;6.90;3.90;;;24.10;99.90;;;;;;5124017;27;19961;-63
2023/07/23 09:41:39;;;;;;;6.35;4.20;;;24.10;99.90;;;;;;5125187;27;20039;-63
2023/07/23 09:44:11;;;;;;;8.15;3.50;;;24.20;99.90;;;;;;5131529;27;20046;-63
2023/07/23 09:46:46;;;;;;;4.38;3.38;;;24.30;99.90;;;;;;5109390;28;20075;-63
2023/07/23 09:49:13;;;;;;;5.97;3.70;;;24.30;99.90;;;;;;5129333;27;20100;-63
2023/07/23 09:51:50;;;;;;;8.40;3.70;;;24.30;99.90;;;;;;5130030;27;20133;-63
2023/07/23 09:54:17;;;;;;;7.15;3.97;;;24.40;99.90;;;;;;5134721;27;20489;-63
2023/07/23 09:56:45;;;;;;;;;;;24.50;99.90;;;;;;5137933;27;20122;-63
2023/07/23 09:59:13;;;;;;;5.47;3.83;;;24.50;99.90;;;;;;5135346;27;19927;-62
2023/07/23 10:01:40;;;;;;;6.95;4.18;;;24.60;99.90;;;;;;5135204;27;20035;-63
2023/07/23 10:04:08;;;;;;;4.97;3.38;;;24.80;99.90;;;;;;5134601;27;20043;-63
2023/07/23 10:06:36;;;;;;;5.45;3.63;;;25.00;99.90;;;;;;5135559;27;20043;-63
2023/07/23 10:09:03;;;;;;;6.45;3.90;;;25.20;99.90;;;;;;5135130;27;20567;-63
2023/07/23 10:11:33;;;;;;;6.13;3.80;;;25.20;99.90;;;;;;5112451;27;20046;-63
2023/07/23 10:14:02;;;;;;;6.88;4.10;;;25.20;99.90;;;;;;5124590;27;20043;-63
2023/07/23 10:16:34;;;;;;;7.25;3.75;;;25.30;99.90;;;;;;5131051;27;20547;-63
2023/07/23 10:19:04;;;;;;;5.05;3.60;;;25.30;99.90;;;;;;5132146;27;20130;-63
2023/07/23 10:21:34;;;;;;;6.70;3.30;;;25.40;99.90;;;;;;5131199;27;20031;-63
2023/07/23 10:24:02;;;;;;;6.43;3.42;;;25.40;99.90;;;;;;5130510;27;20043;-63
2023/07/23 10:26:30;;;;;;;5.90;3.67;;;25.50;99.90;;;;;;5119860;27;20039;-63
2023/07/23 10:29:13;;;;;;;4.10;3.30;;;25.60;99.90;;;;;;5126143;28;20037;-63
2023/07/23 10:31:45;;;;;;;4.93;3.50;;;25.60;99.90;;;;;;5131201;28;20041;-63
2023/07/23 10:34:25;;;;;;;5.35;3.63;;;25.90;99.90;;;;;;5124206;27;20049;-63
2023/07/23 10:37:12;;;;;;;5.43;4.05;;;26.20;99.90;;;;;;5130997;27;20039;-63
2023/07/23 10:39:55;;;;;;;4.38;3.67;;;26.20;99.90;;;;;;5123435;27;20073;-63
2023/07/23 10:42:34;;;;;;;4.53;3.55;;;26.30;99.90;;;;;;5125688;27;20134;-63
2023/07/23 10:45:17;;;;;;;8.70;4.05;;;26.20;99.90;;;;;;5136433;27;20039;-63
2023/07/23 10:48:03;;;;;;;4.15;3.33;;;26.30;99.90;;;;;;5125568;27;20756;-63
2023/07/23 10:50:30;;;;;;;3.95;3.20;;;26.40;99.90;;;;;;5135584;27;20123;-63
2023/07/23 10:53:05;;;;;;;4.78;3.38;;;26.50;99.90;;;;;;5134395;27;20542;-63
2023/07/23 10:55:39;;;;;;;3.83;3.30;;;26.70;99.90;;;;;;5134502;27;20047;-63
2023/07/23 10:58:11;;;;;;;5.50;3.20;;;26.90;99.90;;;;;;5134797;27;20127;-63
2023/07/23 11:01:05;;;;;;;4.53;3.45;;;27.00;99.90;;;;;;5129115;27;20484;-63
2023/07/23 11:03:32;;;;;;;4.95;3.58;;;27.10;99.90;;;;;;5131499;27;20062;-63
2023/07/23 11:05:59;;;;;;;5.93;3.47;;;27.20;99.90;;;;;;5135338;27;20050;-63
2023/07/23 11:08:26;;;;;;;4.50;3.40;;;27.30;99.20;;;;;;5133609;27;20044;-63
2023/07/23 11:10:57;;;;;;;5.47;3.55;;;27.40;99.40;;;;;;5138526;27;20047;-63
2023/07/23 11:13:30;;;;;;;6.60;3.63;;;27.40;98.80;;;;;;5138548;27;20053;-64
2023/07/23 11:15:58;;;;;;;4.43;3.35;;;27.50;96.80;;;;;;5144241;27;20051;-64
2023/07/23 11:18:25;;;;;;;4.20;3.15;;;27.60;97.50;;;;;;5135181;27;20113;-64
2023/07/23 11:20:54;;;;;;;4.68;3.00;;;27.80;96.50;;;;;;5146587;27;20429;-63
2023/07/23 11:23:23;;;;;;;4.13;3.17;;;27.80;92.20;;;;;;5143313;27;20032;-64
2023/07/23 11:25:51;;;;;;;5.40;3.13;;;27.90;94.40;;;;;;5134378;27;20390;-64
2023/07/23 11:28:19;;;;;;;4.65;3.42;;;28.00;93.80;;;;;;5135373;27;20036;-64
2023/07/23 11:30:49;;;;;;;5.07;3.47;;;28.10;94.90;;;;;;5143832;27;20031;-64
2023/07/23 11:33:17;;;;;;;4.72;3.45;;;27.90;94.30;;;;;;5142615;27;20231;-64
2023/07/23 11:35:44;;;;;;;5.32;3.42;;;27.50;95.30;;;;;;5139238;27;20560;-64
2023/07/23 11:38:11;;;;;;;;;;;27.70;94.70;;;;;;5148833;27;20050;-64
2023/07/23 11:40:38;;;;;;;4.65;3.38;;;27.80;93.20;;;;;;5144368;27;19919;-64
2023/07/23 11:43:06;;;;;;;7.65;3.67;;;28.00;90.90;;;;;;5143526;27;20035;-64
2023/07/23 11:45:43;;;;;;;5.28;3.70;;;28.20;91.80;;;;;;5128639;27;20073;-64
2023/07/23 11:48:14;;;;;;;;;;;28.40;91.80;;;;;;5142788;27;20039;-64
2023/07/23 11:50:40;;;;;;;4.88;3.78;;;28.40;91.40;;;;;;5142077;27;19926;-64
2023/07/23 11:53:07;;;;;;;4.43;3.70;;;28.40;90.40;;;;;;5143378;27;20047;-64
2023/07/23 11:55:34;;;;;;;5.63;3.95;;;28.50;91.30;;;;;;5141878;27;20039;-64
2023/07/23 11:58:01;;;;;;;;;;;28.60;90.40;;;;;;5137614;27;20770;-64
2023/07/23 12:00:29;;;;;;;6.85;4.13;;;28.80;89.20;;;;;;5113248;27;19919;-64
2023/07/23 12:02:59;;;;;;;5.63;3.85;;;28.80;90.60;;;;;;5134636;27;20058;-64
2023/07/23 12:05:26;;;;;;;5.15;4.13;;;28.80;90.20;;;;;;5132988;27;20058;-64
2023/07/23 12:07:53;;;;;;;;;;;28.70;90.50;;;;;;5138370;27;20039;-64
2023/07/23 12:10:20;;;;;;;6.07;4.10;;;28.80;90.40;;;;;;5141051;27;19926;-64
2023/07/23 12:12:47;;;;;;;;;;;28.90;89.40;;;;;;5140561;27;20110;-64
2023/07/23 12:15:16;;;;;;;8.23;4.68;;;28.90;87.00;;;;;;5140140;27;19927;-64
2023/07/23 12:17:44;;;;;;;6.20;4.30;;;28.80;88.50;;;;;;5116945;27;20051;-64
2023/07/23 12:20:16;;;;;;;8.82;5.07;;;28.60;87.40;;;;;;5131884;27;20047;-64
2023/07/23 12:22:54;;;;;;;6.20;4.03;;;28.50;88.20;;;;;;5117829;27;20039;-64
2023/07/23 12:25:25;;;;;;;5.57;4.32;;;28.80;88.50;;;;;;5132764;27;20683;-64
2023/07/23 12:27:51;;;;;;;6.07;4.40;;;29.10;86.70;;;;;;5132481;27;20039;-64
2023/07/23 12:30:18;;;;;;;;;;;29.30;84.60;;;;;;5131478;27;20039;-64
2023/07/23 12:32:46;;;;;;;7.05;4.25;;;29.40;86.20;;;;;;5131562;27;19920;-64
2023/07/23 12:35:13;;;;;;;6.57;4.15;;;29.50;83.70;;;;;;5134075;27;20047;-64
2023/07/23 12:37:39;;;;;;;6.68;4.22;;;29.70;81.80;;;;;;5123810;27;20058;-64
2023/07/23 12:40:08;;;;;;;8.82;4.63;;;29.50;84.40;;;;;;5133708;27;20051;-65
2023/07/23 12:42:36;;;;;;;9.32;4.40;;;29.50;86.80;;;;;;5128447;27;20066;-65
2023/07/23 12:45:03;;;;;;;7.63;4.97;;;29.70;82.90;;;;;;5128404;27;20039;-65
2023/07/23 12:47:31;;;;;;;7.32;4.35;;;29.80;83.80;;;;;;5131881;27;20468;-64
2023/07/23 12:50:00;;;;;;;7.22;4.40;;;29.80;80.50;;;;;;5112427;27;20039;-65
2023/07/23 12:52:27;;;;;;;6.28;4.18;;;29.60;81.80;;;;;;5132318;27;20062;-65
2023/07/23 12:54:54;;;;;;;6.70;4.72;;;29.80;84.30;;;;;;5133353;27;20045;-66
2023/07/23 12:57:22;;;;;;;6.70;4.70;;;29.90;86.40;;;;;;5131526;27;20044;-66